Time;durP1;ratioP1;P1;durP2;ratioP2;P2;SDS_P1;SDS_P2;PMS_P1;PMS_P2;Temp;Humidity;BMP_temperature;BMP_pressure;BME280_temperature;BME280_humidity;BME280_pressure;Samples;Min_cycle;Max_cycle;Signal;HPM_P1;HPM_P2
2022/07/14 00:00:50;;;;;;;4.43;1.58;;;;;;;;;;5007196;28;20183;-73
2022/07/14 00:03:15;;;;;;;9.18;2.60;;;;;;;;;;4984714;28;20285;-74
2022/07/14 00:05:41;;;;;;;6.22;1.95;;;;;;;;;;4985182;28;20269;-74
2022/07/14 00:08:06;;;;;;;4.53;2.72;;;;;;;;;;4984294;28;20199;-74
2022/07/14 00:10:31;;;;;;;5.28;1.95;;;;;;;;;;5003652;28;20560;-74
2022/07/14 00:12:57;;;;;;;6.93;2.28;;;;;;;;;;5005172;28;20179;-74
2022/07/14 00:15:22;;;;;;;11.70;2.95;;;;;;;;;;5009011;28;20270;-73
2022/07/14 00:17:47;;;;;;;9.20;2.35;;;;;;;;;;4999893;28;20191;-74
2022/07/14 00:20:12;;;;;;;9.07;2.60;;;;;;;;;;5005068;28;20623;-74
2022/07/14 00:22:38;;;;;;;3.42;1.58;;;;;;;;;;4992124;28;20175;-73
2022/07/14 00:25:04;;;;;;;5.93;1.88;;;;;;;;;;5004973;28;20270;-75
2022/07/14 00:27:29;;;;;;;8.18;2.20;;;;;;;;;;5005648;28;20581;-74
2022/07/14 00:29:54;;;;;;;10.45;2.60;;;;;;;;;;5013358;28;20186;-74
2022/07/14 00:32:19;;;;;;;10.50;2.00;;;;;;;;;;5012382;28;20175;-74
2022/07/14 00:34:44;;;;;;;6.85;2.13;;;;;;;;;;5016205;28;20430;-73
2022/07/14 00:37:10;;;;;;;7.68;2.67;;;;;;;;;;5014796;28;20221;-74
2022/07/14 00:42:30;;;;;;;5.60;1.80;;;;;;;;;;5012267;28;20685;-73
2022/07/14 00:44:55;;;;;;;6.88;2.08;;;;;;;;;;5013477;28;20221;-75
2022/07/14 00:47:20;;;;;;;9.18;2.50;;;;;;;;;;5011673;28;20210;-74
2022/07/14 00:49:45;;;;;;;5.82;1.88;;;;;;;;;;5015415;28;20267;-74
2022/07/14 00:52:11;;;;;;;7.18;1.92;;;;;;;;;;5015348;28;20183;-74
2022/07/14 00:54:36;;;;;;;7.25;2.00;;;;;;;;;;5010016;28;20257;-75
2022/07/14 00:57:02;;;;;;;5.82;1.95;;;;;;;;;;5016184;28;20256;-74
2022/07/14 00:59:27;;;;;;;8.90;2.75;;;;;;;;;;5017150;28;20194;-75
2022/07/14 01:01:52;;;;;;;7.55;1.83;;;;;;;;;;5017100;28;20634;-75
2022/07/14 01:04:17;;;;;;;6.95;2.30;;;;;;;;;;5007198;28;20266;-75
2022/07/14 01:06:43;;;;;;;8.07;1.85;;;;;;;;;;5013759;28;20286;-76
2022/07/14 01:09:08;;;;;;;8.90;1.67;;;;;;;;;;5013419;28;20230;-74
2022/07/14 01:11:33;;;;;;;7.45;2.40;;;;;;;;;;5011057;28;20191;-74
2022/07/14 01:14:02;;;;;;;6.47;1.75;;;;;;;;;;5008060;28;20206;-75
2022/07/14 01:16:27;;;;;;;10.88;2.47;;;;;;;;;;5014146;28;20590;-74
2022/07/14 01:18:52;;;;;;;8.32;1.95;;;;;;;;;;5014570;28;20189;-73
2022/07/14 01:21:18;;;;;;;4.93;1.90;;;;;;;;;;5006006;28;20265;-75
2022/07/14 01:23:43;;;;;;;5.25;1.55;;;;;;;;;;5002455;28;20680;-73
2022/07/14 01:26:08;;;;;;;8.40;2.42;;;;;;;;;;5008900;28;20230;-75
2022/07/14 01:28:33;;;;;;;8.27;2.57;;;;;;;;;;5012840;28;22645;-75
2022/07/14 01:30:58;;;;;;;6.80;1.88;;;;;;;;;;5012285;28;20427;-75
2022/07/14 01:33:23;;;;;;;7.88;1.80;;;;;;;;;;5011629;28;20266;-74
2022/07/14 01:35:48;;;;;;;5.20;2.08;;;;;;;;;;5015262;28;20187;-74
2022/07/14 01:38:15;;;;;;;10.05;2.60;;;;;;;;;;5015220;28;20198;-75
2022/07/14 01:40:40;;;;;;;4.80;1.90;;;;;;;;;;5010068;28;20189;-74
2022/07/14 01:43:05;;;;;;;9.43;2.03;;;;;;;;;;5011816;28;20175;-73
2022/07/14 01:45:32;;;;;;;6.97;1.88;;;;;;;;;;5009759;28;20576;-74
2022/07/14 01:47:57;;;;;;;5.13;1.98;;;;;;;;;;5001042;28;20203;-75
2022/07/14 01:50:23;;;;;;;4.25;1.83;;;;;;;;;;5007624;28;20593;-75
2022/07/14 01:52:48;;;;;;;9.45;1.83;;;;;;;;;;5006304;28;20167;-73
2022/07/14 01:55:13;;;;;;;6.70;2.30;;;;;;;;;;5006846;28;20229;-75
2022/07/14 01:57:38;;;;;;;7.82;2.03;;;;;;;;;;5011718;28;20580;-75
2022/07/14 02:00:04;;;;;;;7.25;1.55;;;;;;;;;;5011013;28;20175;-74
2022/07/14 02:02:30;;;;;;;5.43;1.80;;;;;;;;;;5011287;28;20179;-74
2022/07/14 02:04:55;;;;;;;5.40;2.33;;;;;;;;;;5007473;28;20217;-75
2022/07/14 02:07:20;;;;;;;4.53;1.80;;;;;;;;;;5010445;28;20206;-75
2022/07/14 02:12:29;;;;;;;4.38;1.83;;;;;;;;;;5010879;28;20200;-75
2022/07/14 02:14:54;;;;;;;5.25;2.17;;;;;;;;;;5012704;28;20179;-75
2022/07/14 02:17:19;;;;;;;7.50;2.13;;;;;;;;;;5011116;28;20202;-75
2022/07/14 02:19:44;;;;;;;5.47;2.33;;;;;;;;;;5008837;28;20670;-75
2022/07/14 02:22:09;;;;;;;5.45;1.98;;;;;;;;;;5008958;28;20194;-75
2022/07/14 02:24:35;;;;;;;4.45;2.35;;;;;;;;;;5007965;28;20265;-74
2022/07/14 02:27:00;;;;;;;7.05;2.35;;;;;;;;;;5008231;28;20238;-75
2022/07/14 02:29:26;;;;;;;5.00;2.10;;;;;;;;;;5006103;28;20179;-74
2022/07/14 02:31:51;;;;;;;6.28;2.95;;;;;;;;;;5011420;28;20181;-73
2022/07/14 02:34:17;;;;;;;4.80;2.03;;;;;;;;;;5011853;28;20203;-76
2022/07/14 02:36:42;;;;;;;7.00;2.42;;;;;;;;;;5027052;23;20584;-67
2022/07/14 02:39:07;;;;;;;7.88;2.22;;;;;;;;;;5031771;28;20181;-68
2022/07/14 02:41:33;;;;;;;3.40;1.98;;;;;;;;;;5031969;28;20178;-69
2022/07/14 02:43:58;;;;;;;7.35;2.33;;;;;;;;;;5031205;28;20273;-68
2022/07/14 02:46:23;;;;;;;9.20;2.40;;;;;;;;;;5029904;28;20213;-71
2022/07/14 02:48:49;;;;;;;5.43;2.20;;;;;;;;;;5030841;28;20186;-68
2022/07/14 02:51:15;;;;;;;3.83;2.03;;;;;;;;;;5031564;28;20182;-68
2022/07/14 02:53:40;;;;;;;2.95;1.60;;;;;;;;;;5013700;28;20174;-71
2022/07/14 02:56:06;;;;;;;9.25;2.03;;;;;;;;;;5025651;28;20640;-70
2022/07/14 02:58:31;;;;;;;5.00;2.00;;;;;;;;;;5030642;28;20635;-70
2022/07/14 03:00:56;;;;;;;6.38;2.15;;;;;;;;;;5032223;28;20245;-71
2022/07/14 03:03:21;;;;;;;4.43;2.28;;;;;;;;;;5022556;28;20175;-71
2022/07/14 03:05:47;;;;;;;6.13;2.30;;;;;;;;;;5030306;28;20675;-70
2022/07/14 03:08:12;;;;;;;3.38;2.10;;;;;;;;;;5030311;28;20194;-70
2022/07/14 03:10:38;;;;;;;7.47;2.17;;;;;;;;;;5026992;28;20175;-70
2022/07/14 03:13:03;;;;;;;6.00;2.45;;;;;;;;;;5028653;28;20175;-71
2022/07/14 03:15:28;;;;;;;5.35;2.08;;;;;;;;;;5021919;28;20257;-71
2022/07/14 03:17:53;;;;;;;9.38;3.30;;;;;;;;;;5020101;28;20249;-69
2022/07/14 03:20:19;;;;;;;7.22;2.30;;;;;;;;;;5028681;28;20240;-71
2022/07/14 03:22:45;;;;;;;8.25;2.60;;;;;;;;;;5031043;28;20190;-70
2022/07/14 03:25:11;;;;;;;5.25;2.42;;;;;;;;;;5025563;28;20202;-71
2022/07/14 03:27:38;;;;;;;10.10;3.15;;;;;;;;;;5025808;28;20586;-69
2022/07/14 03:30:03;;;;;;;7.32;3.08;;;;;;;;;;5026242;28;20204;-71
2022/07/14 03:32:29;;;;;;;4.35;2.42;;;;;;;;;;5009652;28;20664;-69
2022/07/14 03:34:54;;;;;;;3.95;2.22;;;;;;;;;;5029874;28;20186;-69
2022/07/14 03:37:19;;;;;;;6.05;2.40;;;;;;;;;;5023975;28;20827;-70
2022/07/14 03:39:45;;;;;;;5.78;2.60;;;;;;;;;;5030907;28;20209;-69
2022/07/14 03:42:11;;;;;;;5.65;2.53;;;;;;;;;;5029084;28;20228;-69
2022/07/14 03:44:36;;;;;;;5.65;2.80;;;;;;;;;;5029999;28;20214;-69
2022/07/14 03:47:01;;;;;;;5.70;2.70;;;;;;;;;;5028032;28;20194;-70
2022/07/14 03:49:26;;;;;;;4.38;2.88;;;;;;;;;;5027008;28;20593;-70
2022/07/14 03:51:52;;;;;;;10.77;4.28;;;;;;;;;;5029082;28;20177;-70
2022/07/14 03:54:17;;;;;;;6.28;2.60;;;;;;;;;;5023577;28;20182;-70
2022/07/14 03:56:42;;;;;;;6.53;2.42;;;;;;;;;;5014425;28;20202;-69
2022/07/14 03:59:10;;;;;;;7.90;2.85;;;;;;;;;;5028005;28;20178;-70
2022/07/14 04:01:36;;;;;;;8.65;2.63;;;;;;;;;;5027741;28;20365;-70
2022/07/14 04:04:03;;;;;;;4.25;2.90;;;;;;;;;;5028742;28;20193;-70
2022/07/14 04:06:28;;;;;;;5.53;3.22;;;;;;;;;;5025030;28;20683;-69
2022/07/14 04:08:54;;;;;;;8.68;3.10;;;;;;;;;;5024289;28;20182;-69
2022/07/14 04:11:19;;;;;;;5.22;2.90;;;;;;;;;;5025173;28;20636;-70
2022/07/14 04:13:45;;;;;;;13.00;3.28;;;;;;;;;;5023559;28;20723;-70
2022/07/14 04:16:11;;;;;;;7.82;3.05;;;;;;;;;;5023739;28;20236;-69
2022/07/14 04:18:36;;;;;;;7.10;2.67;;;;;;;;;;5022439;28;20198;-69
2022/07/14 04:21:01;;;;;;;6.35;2.80;;;;;;;;;;5027608;28;20534;-70
2022/07/14 04:23:26;;;;;;;10.50;2.75;;;;;;;;;;5019080;28;20202;-69
2022/07/14 04:25:51;;;;;;;7.05;2.97;;;;;;;;;;5027002;28;20309;-69
2022/07/14 04:28:17;;;;;;;5.38;2.88;;;;;;;;;;5025298;28;20631;-70
2022/07/14 04:30:42;;;;;;;8.60;2.50;;;;;;;;;;5021444;28;20325;-70
2022/07/14 04:33:09;;;;;;;5.63;2.72;;;;;;;;;;5024900;28;20178;-70
2022/07/14 04:35:35;;;;;;;5.00;2.10;;;;;;;;;;5024413;28;20187;-70
2022/07/14 04:38:00;;;;;;;6.10;2.50;;;;;;;;;;5028861;28;20268;-69
2022/07/14 04:40:25;;;;;;;4.43;2.53;;;;;;;;;;5030529;28;20559;-70
2022/07/14 04:42:50;;;;;;;4.30;2.10;;;;;;;;;;5029249;28;20644;-70
2022/07/14 04:45:16;;;;;;;3.72;1.90;;;;;;;;;;5029018;28;20202;-70
2022/07/14 04:47:41;;;;;;;5.88;2.15;;;;;;;;;;5029705;28;20190;-70
2022/07/14 04:52:50;;;;;;;4.63;1.92;;;;;;;;;;5030482;28;20185;-70
2022/07/14 04:55:15;;;;;;;7.90;2.35;;;;;;;;;;5031150;28;20178;-69
2022/07/14 04:57:41;;;;;;;7.10;1.92;;;;;;;;;;5021074;28;20201;-70
2022/07/14 05:00:06;;;;;;;4.90;1.98;;;;;;;;;;5030160;28;20182;-70
2022/07/14 05:02:32;;;;;;;7.97;2.65;;;;;;;;;;5028899;28;20668;-70
2022/07/14 05:04:58;;;;;;;7.80;2.38;;;;;;;;;;5022986;28;20206;-69
2022/07/14 05:07:24;;;;;;;7.05;2.20;;;;;;;;;;5025129;28;20198;-71
2022/07/14 05:09:49;;;;;;;5.68;2.47;;;;;;;;;;5027720;28;20609;-70
2022/07/14 05:12:16;;;;;;;4.50;2.20;;;;;;;;;;5026801;28;20598;-70
2022/07/14 05:14:41;;;;;;;5.25;2.35;;;;;;;;;;5024233;28;20466;-70
2022/07/14 05:17:06;;;;;;;4.65;1.83;;;;;;;;;;5018120;28;20205;-70
2022/07/14 05:19:31;;;;;;;6.72;2.20;;;;;;;;;;5032429;28;20197;-70
2022/07/14 05:21:56;;;;;;;5.82;2.42;;;;;;;;;;5023377;28;20186;-70
2022/07/14 05:24:22;;;;;;;7.07;2.22;;;;;;;;;;5030286;28;20183;-70
2022/07/14 05:26:47;;;;;;;4.65;2.00;;;;;;;;;;5030418;28;20652;-69
2022/07/14 05:29:12;;;;;;;8.15;2.80;;;;;;;;;;5030760;28;20694;-70
2022/07/14 05:31:38;;;;;;;6.45;2.45;;;;;;;;;;5024491;28;20179;-69
2022/07/14 05:34:03;;;;;;;6.80;2.05;;;;;;;;;;5025092;28;20555;-70
2022/07/14 05:36:28;;;;;;;6.80;2.20;;;;;;;;;;5024870;28;20241;-70
2022/07/14 05:38:54;;;;;;;10.38;3.00;;;;;;;;;;5034141;28;20651;-70
2022/07/14 05:41:22;;;;;;;6.10;3.25;;;;;;;;;;5031790;28;20182;-70
2022/07/14 05:43:47;;;;;;;6.57;2.47;;;;;;;;;;5030578;28;20260;-70
2022/07/14 05:46:12;;;;;;;9.30;2.78;;;;;;;;;;5028976;28;20916;-70
2022/07/14 05:48:37;;;;;;;9.60;3.30;;;;;;;;;;5015329;28;20178;-69
2022/07/14 05:51:22;;;;;;;5.90;2.70;;;;;;;;;;5030627;28;20175;-70
2022/07/14 05:53:48;;;;;;;7.53;2.45;;;;;;;;;;5008130;28;20553;-70
2022/07/14 05:56:16;;;;;;;9.00;2.60;;;;;;;;;;5025175;28;20189;-70
2022/07/14 05:58:41;;;;;;;11.85;2.90;;;;;;;;;;5023528;28;20182;-69
2022/07/14 06:01:07;;;;;;;7.75;2.63;;;;;;;;;;5028135;28;20198;-70
2022/07/14 06:03:33;;;;;;;9.48;2.78;;;;;;;;;;5029581;28;20288;-69
2022/07/14 06:06:01;;;;;;;7.78;2.38;;;;;;;;;;5021682;28;20217;-70
2022/07/14 06:08:28;;;;;;;9.85;2.33;;;;;;;;;;5028864;28;20182;-69
2022/07/14 06:10:55;;;;;;;11.40;2.80;;;;;;;;;;5026716;28;20175;-70
2022/07/14 06:13:21;;;;;;;6.30;2.15;;;;;;;;;;5012370;28;20652;-70
2022/07/14 06:15:46;;;;;;;6.70;2.40;;;;;;;;;;5031625;28;20240;-70
2022/07/14 06:18:12;;;;;;;10.48;2.45;;;;;;;;;;5031111;28;20268;-70
2022/07/14 06:20:39;;;;;;;5.15;1.60;;;;;;;;;;5025887;28;20183;-69
2022/07/14 06:23:05;;;;;;;9.63;1.70;;;;;;;;;;5015311;28;20201;-70
2022/07/14 06:25:30;;;;;;;5.60;1.85;;;;;;;;;;5015147;28;22302;-70
2022/07/14 06:27:55;;;;;;;9.13;2.63;;;;;;;;;;5013952;28;20203;-70
2022/07/14 06:30:20;;;;;;;9.00;2.25;;;;;;;;;;5032295;28;20204;-70
2022/07/14 06:32:45;;;;;;;7.77;2.10;;;;;;;;;;5032774;28;20189;-69
2022/07/14 06:35:11;;;;;;;6.70;2.08;;;;;;;;;;5032194;28;20483;-70
2022/07/14 06:37:37;;;;;;;4.72;1.90;;;;;;;;;;5013481;28;20322;-70
2022/07/14 06:40:05;;;;;;;6.75;2.15;;;;;;;;;;5031115;28;20690;-69
2022/07/14 06:42:30;;;;;;;13.82;2.70;;;;;;;;;;5014279;28;20547;-69
2022/07/14 06:44:55;;;;;;;5.95;2.33;;;;;;;;;;5033324;28;20256;-70
2022/07/14 06:47:20;;;;;;;7.30;2.30;;;;;;;;;;5031517;28;20186;-69
2022/07/14 06:49:45;;;;;;;7.37;2.10;;;;;;;;;;5033429;28;20181;-69
2022/07/14 06:52:11;;;;;;;10.60;1.90;;;;;;;;;;5032649;28;20430;-70
2022/07/14 06:54:36;;;;;;;8.02;1.83;;;;;;;;;;5032885;28;20454;-70
2022/07/14 06:57:01;;;;;;;5.40;1.75;;;;;;;;;;5031393;28;20198;-69
2022/07/14 06:59:26;;;;;;;8.07;1.30;;;;;;;;;;5032848;28;20183;-69
2022/07/14 07:01:51;;;;;;;5.07;1.30;;;;;;;;;;5020647;28;20522;-70
2022/07/14 07:04:16;;;;;;;6.00;2.30;;;;;;;;;;5019904;28;20937;-69
2022/07/14 07:06:45;;;;;;;6.17;1.60;;;;;;;;;;5023450;28;20463;-70
2022/07/14 07:09:14;;;;;;;4.72;1.25;;;;;;;;;;5028089;28;20842;-69
2022/07/14 07:11:40;;;;;;;7.57;1.10;;;;;;;;;;5016351;28;20213;-69
2022/07/14 07:14:05;;;;;;;6.15;1.80;;;;;;;;;;5032647;28;20166;-70
2022/07/14 07:16:30;;;;;;;6.90;1.55;;;;;;;;;;5025905;28;20224;-70
2022/07/14 07:18:56;;;;;;;5.97;1.70;;;;;;;;;;5030194;28;20177;-69
2022/07/14 07:21:21;;;;;;;6.25;1.85;;;;;;;;;;5031251;28;20236;-70
2022/07/14 07:23:47;;;;;;;4.43;1.08;;;;;;;;;;5028095;28;20564;-70
2022/07/14 07:26:12;;;;;;;4.25;1.20;;;;;;;;;;5031433;28;20214;-70
2022/07/14 07:28:38;;;;;;;6.10;1.17;;;;;;;;;;5032858;28;20182;-69
2022/07/14 07:31:03;;;;;;;5.43;1.15;;;;;;;;;;5031764;28;20175;-68
2022/07/14 07:33:28;;;;;;;4.80;1.10;;;;;;;;;;5031463;28;20416;-69
2022/07/14 07:35:54;;;;;;;3.53;1.42;;;;;;;;;;5024825;28;20182;-69
2022/07/14 07:38:19;;;;;;;8.20;1.55;;;;;;;;;;5027623;28;20218;-69
2022/07/14 07:40:47;;;;;;;5.93;1.13;;;;;;;;;;5025730;28;20177;-69
2022/07/14 07:43:12;;;;;;;9.82;1.52;;;;;;;;;;5031693;28;20178;-69
2022/07/14 07:45:37;;;;;;;6.40;2.13;;;;;;;;;;5030151;28;20206;-68
2022/07/14 07:48:03;;;;;;;6.53;1.73;;;;;;;;;;5022070;28;20197;-69
2022/07/14 07:50:28;;;;;;;8.55;1.80;;;;;;;;;;5025502;28;20428;-69
2022/07/14 07:52:54;;;;;;;6.93;1.85;;;;;;;;;;5031507;28;20185;-69
2022/07/14 07:55:19;;;;;;;5.00;1.57;;;;;;;;;;5027047;28;20186;-70
2022/07/14 07:57:44;;;;;;;5.43;1.90;;;;;;;;;;5024401;28;20534;-69
2022/07/14 08:00:10;;;;;;;6.03;1.60;;;;;;;;;;5025778;28;20424;-69
2022/07/14 08:02:43;;;;;;;9.38;2.20;;;;;;;;;;5031317;28;20225;-69
2022/07/14 08:05:08;;;;;;;5.88;1.70;;;;;;;;;;5008406;28;20206;-70
2022/07/14 08:07:33;;;;;;;5.33;1.70;;;;;;;;;;5029211;28;20202;-69
2022/07/14 08:09:58;;;;;;;8.07;2.20;;;;;;;;;;5024718;28;20917;-69
2022/07/14 08:12:23;;;;;;;7.53;1.70;;;;;;;;;;5029560;28;20445;-69
2022/07/14 08:14:48;;;;;;;5.40;1.63;;;;;;;;;;5024346;28;20424;-68
2022/07/14 08:17:14;;;;;;;8.23;2.00;;;;;;;;;;5024953;28;20472;-69
2022/07/14 08:19:39;;;;;;;4.43;1.60;;;;;;;;;;5029620;28;20185;-70
2022/07/14 08:22:04;;;;;;;6.88;2.00;;;;;;;;;;5031082;28;20659;-70
2022/07/14 08:24:30;;;;;;;6.53;2.00;;;;;;;;;;5026348;28;20183;-70
2022/07/14 08:26:55;;;;;;;5.63;1.57;;;;;;;;;;5029169;28;20190;-70
2022/07/14 08:29:20;;;;;;;5.43;1.73;;;;;;;;;;5030175;28;20428;-70
2022/07/14 08:31:46;;;;;;;6.63;1.83;;;;;;;;;;5016805;28;20663;-71
2022/07/14 08:34:11;;;;;;;6.00;1.92;;;;;;;;;;5031123;28;20174;-71
2022/07/14 08:36:36;;;;;;;7.30;1.70;;;;;;;;;;5042563;22;20205;-75
2022/07/14 08:39:05;;;;;;;6.38;1.17;;;;;;;;;;5030940;28;20258;-73
2022/07/14 08:41:30;;;;;;;3.90;1.45;;;;;;;;;;5013190;28;20245;-72
2022/07/14 08:43:55;;;;;;;3.50;1.00;;;;;;;;;;5030777;28;20178;-73
2022/07/14 08:46:22;;;;;;;4.50;1.50;;;;;;;;;;5028494;28;20458;-73
2022/07/14 08:48:47;;;;;;;6.22;1.60;;;;;;;;;;5022825;28;20545;-73
2022/07/14 08:51:13;;;;;;;2.78;0.85;;;;;;;;;;5035413;28;20166;-72
2022/07/14 08:53:38;;;;;;;3.97;1.45;;;;;;;;;;5034742;28;20166;-73
2022/07/14 08:56:03;;;;;;;4.72;1.30;;;;;;;;;;5028444;28;20189;-73
2022/07/14 08:58:29;;;;;;;3.55;0.98;;;;;;;;;;5035207;28;20698;-73
2022/07/14 09:00:54;;;;;;;8.57;1.50;;;;;;;;;;5029665;28;20649;-73
2022/07/14 09:03:19;;;;;;;3.33;0.95;;;;;;;;;;5034749;28;20421;-73
2022/07/14 09:05:44;;;;;;;4.10;1.27;;;;;;;;;;5024118;28;20202;-73
2022/07/14 09:08:11;;;;;;;4.53;1.20;;;;;;;;;;5016082;28;20210;-73
2022/07/14 09:10:37;;;;;;;4.35;1.10;;;;;;;;;;5028525;28;20547;-73
2022/07/14 09:13:12;;;;;;;5.82;1.15;;;;;;;;;;5027966;28;20228;-74
2022/07/14 09:15:44;;;;;;;4.32;1.10;;;;;;;;;;5031556;28;20185;-73
2022/07/14 09:18:12;;;;;;;3.70;1.08;;;;;;;;;;5016881;28;20684;-74
2022/07/14 09:20:38;;;;;;;3.00;1.25;;;;;;;;;;5032361;28;20186;-73
2022/07/14 09:23:04;;;;;;;2.55;0.90;;;;;;;;;;5023179;28;20265;-73
2022/07/14 09:25:31;;;;;;;4.75;1.50;;;;;;;;;;5031705;28;20667;-73
2022/07/14 09:27:56;;;;;;;3.97;0.98;;;;;;;;;;5033569;28;20202;-73
2022/07/14 09:30:22;;;;;;;4.28;1.50;;;;;;;;;;5034068;28;20174;-73
2022/07/14 09:32:51;;;;;;;2.60;0.70;;;;;;;;;;5033117;28;20190;-73
2022/07/14 09:35:23;;;;;;;1.88;0.60;;;;;;;;;;5032129;28;20178;-73
2022/07/14 09:37:49;;;;;;;4.38;0.95;;;;;;;;;;5029393;28;20225;-73
2022/07/14 09:40:41;;;;;;;2.50;0.50;;;;;;;;;;5027367;28;20189;-73
2022/07/14 09:43:08;;;;;;;2.55;0.70;;;;;;;;;;5024362;28;20202;-73
2022/07/14 09:45:37;;;;;;;3.13;0.80;;;;;;;;;;5019235;28;20297;-73
2022/07/14 09:48:10;;;;;;;5.38;1.17;;;;;;;;;;5023813;28;20296;-73
2022/07/14 09:50:39;;;;;;;2.88;0.93;;;;;;;;;;5022157;28;20184;-73
2022/07/14 09:53:13;;;;;;;2.42;0.82;;;;;;;;;;5005966;28;20178;-73
2022/07/14 09:55:40;;;;;;;2.05;0.98;;;;;;;;;;5030977;28;20196;-74
2022/07/14 09:58:06;;;;;;;2.35;0.98;;;;;;;;;;5026849;28;20210;-74
2022/07/14 10:00:32;;;;;;;2.38;0.95;;;;;;;;;;5026476;28;20511;-73
2022/07/14 10:02:58;;;;;;;2.13;0.80;;;;;;;;;;5019535;28;20236;-72
2022/07/14 10:05:23;;;;;;;2.92;0.82;;;;;;;;;;5028569;28;20202;-73
2022/07/14 10:07:49;;;;;;;3.25;0.70;;;;;;;;;;5024558;28;20297;-72
2022/07/14 10:10:15;;;;;;;3.03;0.70;;;;;;;;;;5030724;28;20182;-73
2022/07/14 10:12:41;;;;;;;2.83;0.90;;;;;;;;;;5026654;28;20178;-73
2022/07/14 10:15:08;;;;;;;2.25;0.77;;;;;;;;;;5031089;28;20174;-73
2022/07/14 10:17:37;;;;;;;1.90;0.50;;;;;;;;;;5032652;28;20206;-73
2022/07/14 10:20:03;;;;;;;3.97;0.90;;;;;;;;;;5023326;28;20564;-73
2022/07/14 10:22:29;;;;;;;2.10;0.50;;;;;;;;;;5029235;28;20543;-73
2022/07/14 10:24:54;;;;;;;2.80;0.68;;;;;;;;;;5026465;28;20194;-73
2022/07/14 10:27:20;;;;;;;1.80;0.40;;;;;;;;;;5024452;28;20198;-73
2022/07/14 10:29:49;;;;;;;2.55;0.55;;;;;;;;;;5029767;28;20190;-73
2022/07/14 10:32:29;;;;;;;2.33;0.52;;;;;;;;;;5032916;28;20188;-73
2022/07/14 10:35:03;;;;;;;4.75;1.05;;;;;;;;;;5028424;28;20177;-74
2022/07/14 10:37:48;;;;;;;2.70;0.70;;;;;;;;;;5023216;28;20713;-74
2022/07/14 10:40:13;;;;;;;3.97;0.90;;;;;;;;;;5032935;28;20178;-74
2022/07/14 10:42:50;;;;;;;1.30;0.50;;;;;;;;;;5025074;28;20567;-74
2022/07/14 10:45:16;;;;;;;5.93;0.95;;;;;;;;;;5028806;28;20450;-74
2022/07/14 10:47:48;;;;;;;1.95;0.50;;;;;;;;;;5028869;28;20585;-73
2022/07/14 10:50:13;;;;;;;2.50;0.60;;;;;;;;;;5026192;28;20178;-74
2022/07/14 10:52:50;;;;;;;4.75;0.65;;;;;;;;;;5032717;28;20186;-74
2022/07/14 10:55:16;;;;;;;2.38;0.47;;;;;;;;;;5032479;28;20186;-74
2022/07/14 10:57:59;;;;;;;2.05;0.70;;;;;;;;;;5032048;28;20198;-74
2022/07/14 11:00:55;;;;;;;2.35;0.50;;;;;;;;;;5015007;28;20265;-72
2022/07/14 11:03:24;;;;;;;1.60;0.50;;;;;;;;;;5028377;28;20173;-73
2022/07/14 11:06:06;;;;;;;3.90;0.75;;;;;;;;;;5027654;28;20212;-73
2022/07/14 11:08:32;;;;;;;2.58;0.75;;;;;;;;;;5028526;28;20193;-72
2022/07/14 11:10:58;;;;;;;4.07;0.60;;;;;;;;;;5028324;28;20197;-72
2022/07/14 11:13:24;;;;;;;3.17;0.90;;;;;;;;;;5022433;28;20563;-73
2022/07/14 11:15:53;;;;;;;3.78;0.70;;;;;;;;;;5030582;28;20185;-73
2022/07/14 11:18:21;;;;;;;4.75;0.77;;;;;;;;;;5028517;28;20214;-72
2022/07/14 11:20:48;;;;;;;2.00;0.47;;;;;;;;;;5012180;28;20178;-73
2022/07/14 11:23:14;;;;;;;2.53;1.38;;;;;;;;;;5016705;28;20667;-72
2022/07/14 11:25:39;;;;;;;3.25;1.08;;;;;;;;;;5028827;28;20216;-73
2022/07/14 11:28:06;;;;;;;2.40;0.80;;;;;;;;;;5024144;28;20198;-72
2022/07/14 11:30:31;;;;;;;2.78;1.10;;;;;;;;;;5029364;28;20179;-72
2022/07/14 11:33:07;;;;;;;2.63;1.20;;;;;;;;;;5031515;28;20651;-73
2022/07/14 11:38:27;;;;;;;4.15;1.30;;;;;;;;;;5028396;28;20225;-73
2022/07/14 11:40:53;;;;;;;4.20;1.70;;;;;;;;;;5031202;28;20198;-73
2022/07/14 11:43:24;;;;;;;6.75;1.33;;;;;;;;;;5027816;28;20182;-73
2022/07/14 11:45:56;;;;;;;3.50;1.20;;;;;;;;;;5023194;28;20262;-73
2022/07/14 11:48:27;;;;;;;4.15;1.27;;;;;;;;;;5023670;28;20194;-73
2022/07/14 11:50:59;;;;;;;4.65;1.45;;;;;;;;;;5025736;28;20261;-73
2022/07/14 11:53:25;;;;;;;7.35;1.25;;;;;;;;;;5023947;28;20754;-72
2022/07/14 11:55:50;;;;;;;2.67;1.30;;;;;;;;;;5018402;28;20174;-73
2022/07/14 11:58:16;;;;;;;2.53;1.10;;;;;;;;;;5030879;28;20676;-73
2022/07/14 12:00:52;;;;;;;3.00;1.40;;;;;;;;;;5026554;28;20223;-72
2022/07/14 12:03:17;;;;;;;3.50;1.00;;;;;;;;;;5030167;28;20598;-73
2022/07/14 12:05:43;;;;;;;2.27;1.17;;;;;;;;;;5025009;28;20209;-73
2022/07/14 12:08:09;;;;;;;6.95;1.10;;;;;;;;;;5028885;28;20190;-72
2022/07/14 12:10:38;;;;;;;4.88;1.15;;;;;;;;;;5020880;28;20182;-73
2022/07/14 12:13:04;;;;;;;5.78;1.15;;;;;;;;;;5028138;28;20216;-73
2022/07/14 12:15:29;;;;;;;3.17;1.30;;;;;;;;;;5026177;28;20166;-73
2022/07/14 12:17:55;;;;;;;6.32;2.10;;;;;;;;;;5023906;28;20194;-73
2022/07/14 12:20:21;;;;;;;4.97;1.20;;;;;;;;;;5025603;28;20243;-70
2022/07/14 12:22:54;;;;;;;8.88;1.52;;;;;;;;;;5024490;28;20193;-73
2022/07/14 12:25:31;;;;;;;5.32;1.33;;;;;;;;;;5030283;28;20575;-73
2022/07/14 12:28:00;;;;;;;4.35;1.10;;;;;;;;;;5030089;28;20206;-73
2022/07/14 12:30:41;;;;;;;2.35;1.25;;;;;;;;;;5029810;28;20178;-73
2022/07/14 12:33:07;;;;;;;3.72;1.00;;;;;;;;;;5029931;28;20214;-73
2022/07/14 12:35:33;;;;;;;6.72;1.20;;;;;;;;;;5031065;28;20182;-73
2022/07/14 12:37:58;;;;;;;3.50;1.13;;;;;;;;;;5030077;28;20601;-73
2022/07/14 12:40:23;;;;;;;3.07;1.07;;;;;;;;;;5025706;28;20189;-73
2022/07/14 12:42:49;;;;;;;2.38;0.77;;;;;;;;;;5030843;28;20435;-73
2022/07/14 12:45:14;;;;;;;2.33;0.80;;;;;;;;;;5024951;28;20239;-73
2022/07/14 12:47:49;;;;;;;3.33;1.05;;;;;;;;;;5030046;28;20196;-73
2022/07/14 12:50:21;;;;;;;3.15;1.05;;;;;;;;;;5031010;28;20599;-73
2022/07/14 12:52:50;;;;;;;2.72;1.65;;;;;;;;;;5030656;28;20189;-73
2022/07/14 12:55:34;;;;;;;5.75;1.35;;;;;;;;;;5013089;28;20220;-73
2022/07/14 12:58:03;;;;;;;3.05;0.90;;;;;;;;;;5029443;28;20198;-73
2022/07/14 13:00:30;;;;;;;2.70;1.20;;;;;;;;;;5030688;28;20201;-73
2022/07/14 13:03:10;;;;;;;3.80;1.23;;;;;;;;;;5030199;28;20591;-73
2022/07/14 13:05:36;;;;;;;2.15;0.98;;;;;;;;;;5030624;28;20194;-73
2022/07/14 13:08:22;;;;;;;3.13;1.50;;;;;;;;;;5020777;28;20559;-73
2022/07/14 13:10:54;;;;;;;3.65;0.98;;;;;;;;;;5024843;28;20487;-75
2022/07/14 13:13:27;;;;;;;2.20;1.08;;;;;;;;;;5021697;28;20186;-73
2022/07/14 13:15:53;;;;;;;3.67;1.10;;;;;;;;;;5026535;28;20682;-73
2022/07/14 13:18:18;;;;;;;2.60;0.93;;;;;;;;;;5029557;28;20229;-73
2022/07/14 13:23:20;;;;;;;3.03;1.13;;;;;;;;;;5023247;28;20435;-71
2022/07/14 13:25:45;;;;;;;1.95;0.90;;;;;;;;;;5028013;28;20850;-73
2022/07/14 13:28:11;;;;;;;4.23;1.27;;;;;;;;;;5028976;28;20289;-71
2022/07/14 13:30:36;;;;;;;2.00;0.70;;;;;;;;;;5026357;28;20522;-73
2022/07/14 13:33:01;;;;;;;3.47;1.30;;;;;;;;;;5030424;28;20193;-74
2022/07/14 13:35:26;;;;;;;3.40;0.77;;;;;;;;;;5026383;28;20201;-74
2022/07/14 13:37:51;;;;;;;2.67;1.00;;;;;;;;;;5030805;28;20297;-73
2022/07/14 13:40:16;;;;;;;2.73;0.73;;;;;;;;;;5030040;28;20186;-73
2022/07/14 13:42:42;;;;;;;3.73;1.07;;;;;;;;;;5032149;28;20427;-71
2022/07/14 13:45:07;;;;;;;2.43;0.97;;;;;;;;;;5032514;28;20680;-73
2022/07/14 13:47:32;;;;;;;4.32;0.68;;;;;;;;;;5031653;28;20209;-73
2022/07/14 13:52:41;;;;;;;4.78;0.88;;;;;;;;;;5032563;28;20197;-74
2022/07/14 13:55:07;;;;;;;1.43;0.70;;;;;;;;;;5033091;28;20182;-73
2022/07/14 13:57:32;;;;;;;1.60;0.50;;;;;;;;;;5031706;28;20203;-72
2022/07/14 13:59:57;;;;;;;2.83;0.60;;;;;;;;;;5032095;28;20209;-73
2022/07/14 14:02:22;;;;;;;2.78;1.05;;;;;;;;;;5032681;28;20977;-73
2022/07/14 14:04:48;;;;;;;1.20;0.50;;;;;;;;;;5031555;28;20174;-73
2022/07/14 14:07:13;;;;;;;3.37;0.80;;;;;;;;;;5028787;28;20211;-73
2022/07/14 14:09:38;;;;;;;1.85;0.70;;;;;;;;;;5025086;28;20799;-73
2022/07/14 14:12:05;;;;;;;3.53;1.00;;;;;;;;;;5032722;28;20628;-73
2022/07/14 14:14:30;;;;;;;3.63;0.80;;;;;;;;;;5031572;28;20434;-73
2022/07/14 14:16:55;;;;;;;3.05;0.60;;;;;;;;;;5027903;28;20288;-73
2022/07/14 14:19:20;;;;;;;8.98;0.88;;;;;;;;;;5031978;28;20191;-73
2022/07/14 14:21:46;;;;;;;1.77;0.70;;;;;;;;;;5031479;28;20178;-73
2022/07/14 14:24:11;;;;;;;1.27;0.70;;;;;;;;;;5032421;28;20725;-73
2022/07/14 14:26:37;;;;;;;2.08;0.57;;;;;;;;;;5032332;28;20234;-73
2022/07/14 14:29:02;;;;;;;1.65;0.50;;;;;;;;;;5031905;28;20181;-73
2022/07/14 14:31:27;;;;;;;2.10;0.63;;;;;;;;;;5033203;28;20182;-73
2022/07/14 14:33:52;;;;;;;1.70;0.60;;;;;;;;;;5033268;28;20183;-74
2022/07/14 14:36:17;;;;;;;1.40;0.55;;;;;;;;;;5031994;28;20264;-73
2022/07/14 14:38:43;;;;;;;2.20;0.47;;;;;;;;;;5060521;22;20233;-70
2022/07/14 14:41:08;;;;;;;1.20;0.40;;;;;;;;;;5053752;28;20415;-70
2022/07/14 14:43:33;;;;;;;1.97;1.00;;;;;;;;;;5052311;28;20454;-69
2022/07/14 14:45:58;;;;;;;1.15;0.40;;;;;;;;;;5052566;28;20653;-70
2022/07/14 14:48:24;;;;;;;3.78;0.70;;;;;;;;;;5052573;28;20196;-70
2022/07/14 14:50:49;;;;;;;2.07;0.63;;;;;;;;;;5052648;28;20185;-71
2022/07/14 14:53:14;;;;;;;1.33;0.70;;;;;;;;;;5052797;28;20452;-69
2022/07/14 14:55:39;;;;;;;2.75;0.73;;;;;;;;;;5052997;28;20472;-70